Plymouth, NH

1:07 PM EST on December 16, 2017 (GMT -0500)
Plymouth

Weather History for K1P1 - December, 2013

Change the Weather History Date:

Monday, December 2, 2013

  Actual Average (KLCI) Record (KLCI)
Temperature  
Mean Temperature 36 °F -  
Max Temperature 41 °F 39 °F 60 °F (1998)
Min Temperature 30 °F 25 °F 2 °F (1989)
Degree Days  
Heating Degree Days 30    
Moisture  
Dew Point 31 °F    
Average Humidity 87    
Maximum Humidity 97    
Minimum Humidity 73    
Precipitation  
Precipitation 0.00 in - - ()
Sea Level Pressure  
Sea Level Pressure 29.96 in    
Wind  
Wind Speed 0 mph (North)    
Max Wind Speed 0 mph    
Max Gust Speed -    
Visibility 10 miles    
Events      
Averages and records for this station are not official NWS values.
T = Trace of Precipitation, MM = Missing Value Source: NWS Daily Summary

Daily Weather History Graph

Daily Weather History Graph

Search for Another Location

Airport or City:

Trip Planner

Search our weather history database for the weather conditions in past years. The results will help you decide how hot, cold, wet, or windy it might be!

Date:

Astronomy

Dec. 02, 2013 Rise Set
Actual Time 7:02 AM EST 4:10 PM EST
Civil Twilight 6:29 AM EST 4:42 PM EST
Nautical Twilight 5:54 AM EST 5:18 PM EST
Astronomical Twilight 5:19 AM EST 5:53 PM EST
Moon 6:22 AM EST (12/2) 4:11 PM EST (12/2)
Length of Visible Light 10h 12m
Length of Day
9h 08m
Waning Crescent, 0% of the Moon is Illuminated
Dec 2
Waning Crescent
Dec 2
New
Dec 9
First Quarter
Dec 17
Full
Dec 25
Last Quarter

Hourly Weather History & Observations

Time (EST) Temp. Dew Point Humidity Pressure Visibility Wind Dir Wind Speed Gust Speed Precip Events Conditions
12:15 AM 32.0 °F 28.9 °F 88% 30.04 in 10.0 mi Calm Calm - N/A   Overcast
12:35 AM 31.6 °F 28.9 °F 90% 30.03 in 10.0 mi Calm Calm - N/A   Overcast
12:55 AM 31.5 °F 28.9 °F 90% 30.03 in 10.0 mi Calm Calm - N/A   Overcast
1:15 AM 31.8 °F 28.6 °F 88% 30.03 in 10.0 mi Calm Calm - N/A   Overcast
1:35 AM 31.8 °F 29.1 °F 90% 30.02 in 10.0 mi Calm Calm - N/A   Overcast
1:55 AM 32.0 °F 29.1 °F 89% 30.03 in 10.0 mi Calm Calm - N/A   Overcast
2:15 AM 31.8 °F 29.1 °F 90% 30.02 in 10.0 mi Calm Calm - N/A   Overcast
2:35 AM 31.8 °F 29.3 °F 90% 30.02 in 10.0 mi Calm Calm - N/A   Overcast
2:55 AM 31.6 °F 29.3 °F 91% 30.01 in 10.0 mi Calm Calm - N/A   Overcast
3:15 AM 31.1 °F 28.4 °F 90% 30.01 in 10.0 mi Calm Calm - N/A   Mostly Cloudy
3:35 AM 30.6 °F 28.4 °F 92% 30.00 in 10.0 mi Calm Calm - N/A   Mostly Cloudy
3:55 AM 30.6 °F 28.9 °F 94% 30.01 in 10.0 mi Calm Calm - N/A   Overcast
4:15 AM 31.1 °F 28.8 °F 91% 30.00 in 10.0 mi Calm Calm - N/A   Overcast
4:35 AM 31.3 °F 28.4 °F 89% 30.00 in 10.0 mi Calm Calm - N/A   Overcast
4:55 AM 31.6 °F 28.4 °F 88% 30.00 in 10.0 mi Calm Calm - N/A   Overcast
5:15 AM 31.6 °F 28.4 °F 88% 30.00 in 10.0 mi Calm Calm - N/A   Overcast
5:35 AM 31.8 °F 28.2 °F 87% 30.00 in 10.0 mi Calm Calm - N/A   Overcast
5:55 AM 31.6 °F 28.2 °F 87% 30.00 in 10.0 mi Calm Calm - N/A   Overcast
6:15 AM 31.8 °F 28.4 °F 87% 29.99 in 10.0 mi Calm Calm - N/A   Overcast
6:35 AM 31.8 °F 28.2 °F 87% 29.99 in 10.0 mi Calm Calm - N/A   Overcast
6:55 AM 31.5 °F 28.0 °F 87% 29.98 in 10.0 mi Calm Calm - N/A   Overcast
7:15 AM 31.1 °F 28.0 °F 88% 29.98 in 10.0 mi Calm Calm - N/A   Overcast
7:35 AM 31.5 °F 28.2 °F 88% 29.99 in 10.0 mi Calm Calm - N/A   Overcast
7:55 AM 31.6 °F 28.4 °F 88% 29.99 in 10.0 mi Calm Calm - N/A   Overcast
8:15 AM 31.8 °F 28.4 °F 87% 29.99 in 10.0 mi Calm Calm - N/A   Overcast
8:35 AM 32.0 °F 28.4 °F 87% 29.98 in 10.0 mi Calm Calm - N/A   Overcast
8:55 AM 32.0 °F 28.8 °F 88% 29.98 in 10.0 mi Calm Calm - N/A   Overcast
9:15 AM 32.2 °F 28.9 °F 88% 29.98 in 10.0 mi Calm Calm - N/A   Overcast
9:35 AM 32.7 °F 28.6 °F 85% 29.98 in 10.0 mi Calm Calm - N/A   Overcast
9:55 AM 32.9 °F 28.9 °F 85% 29.98 in 10.0 mi Calm Calm - N/A   Overcast
10:15 AM 33.3 °F 29.3 °F 85% 29.98 in 10.0 mi Calm Calm - N/A   Overcast
10:35 AM 34.0 °F 29.5 °F 84% 29.97 in 10.0 mi Calm Calm - N/A   Overcast
10:55 AM 34.7 °F 29.7 °F 82% 29.96 in 10.0 mi Calm Calm - N/A   Overcast
11:15 AM 35.1 °F 29.7 °F 81% 29.96 in 10.0 mi Calm Calm - N/A   Overcast
11:35 AM 35.8 °F 30.0 °F 80% 29.96 in 10.0 mi Calm Calm - N/A   Overcast
11:55 AM 36.1 °F 30.2 °F 79% 29.95 in 10.0 mi Calm Calm - N/A   Overcast
12:15 PM 37.2 °F 30.9 °F 78% 29.94 in 10.0 mi Calm Calm - N/A   Overcast
12:35 PM 37.8 °F 31.6 °F 79% 29.94 in 10.0 mi Calm Calm - N/A   Overcast
12:55 PM 38.8 °F 32.4 °F 78% 29.94 in 10.0 mi Calm Calm - N/A   Overcast
1:15 PM 40.5 °F 32.9 °F 74% 29.93 in 10.0 mi Calm Calm - N/A   Mostly Cloudy
1:35 PM 41.0 °F 33.1 °F 73% 29.93 in 10.0 mi Calm Calm - N/A   Mostly Cloudy
1:55 PM 40.8 °F 33.3 °F 74% 29.92 in 10.0 mi Calm Calm - N/A   Mostly Cloudy
2:15 PM 40.5 °F 33.3 °F 75% 29.91 in 10.0 mi Calm Calm - N/A   Mostly Cloudy
2:35 PM 40.5 °F 33.8 °F 77% 29.91 in 10.0 mi Calm Calm - N/A   Overcast
2:55 PM 40.5 °F 33.8 °F 77% 29.91 in 10.0 mi Calm Calm - N/A   Overcast
3:15 PM 40.3 °F 33.8 °F 78% 29.91 in 10.0 mi Calm Calm - N/A   Overcast
3:35 PM 39.4 °F 33.6 °F 80% 29.91 in 10.0 mi Calm Calm - N/A   Overcast
3:55 PM 38.3 °F 33.1 °F 81% 29.90 in 10.0 mi Calm Calm - N/A   Overcast
4:15 PM 37.4 °F 32.9 °F 84% 29.90 in 10.0 mi Calm Calm - N/A   Overcast
4:35 PM 36.5 °F 32.5 °F 86% 29.90 in 10.0 mi Calm Calm - N/A   Overcast
4:55 PM 36.0 °F 32.4 °F 87% 29.91 in 10.0 mi Calm Calm - N/A   Overcast
5:15 PM 36.5 °F 32.9 °F 87% 29.91 in 10.0 mi Calm Calm - N/A   Overcast
5:35 PM 35.2 °F 32.0 °F 88% 29.92 in 10.0 mi Calm Calm - N/A   Overcast
5:55 PM 35.2 °F 32.0 °F 88% 29.93 in 10.0 mi Calm Calm - N/A   Overcast
6:15 PM 34.9 °F 32.0 °F 89% 29.93 in 10.0 mi Calm Calm - N/A   Light Drizzle
6:35 PM 34.9 °F 32.2 °F 90% 29.93 in 10.0 mi Calm Calm - N/A   Overcast
6:55 PM 33.8 °F 32.0 °F 93% 29.93 in 10.0 mi Calm Calm - N/A   Overcast
7:15 PM 34.2 °F 32.2 °F 92% 29.94 in 10.0 mi Calm Calm - N/A   Overcast
7:35 PM 33.6 °F 32.0 °F 94% 29.94 in 10.0 mi Calm Calm - N/A   Overcast
7:55 PM 33.8 °F 32.0 °F 93% 29.94 in 10.0 mi Calm Calm - N/A   Overcast
8:15 PM 33.8 °F 32.0 °F 93% 29.94 in 10.0 mi Calm Calm - N/A   Overcast
8:35 PM 33.8 °F 32.0 °F 93% 29.93 in 10.0 mi Calm Calm - N/A   Overcast
8:55 PM 33.8 °F 32.0 °F 93% 29.93 in 10.0 mi Calm Calm - N/A   Overcast
9:15 PM 33.6 °F 32.0 °F 94% 29.93 in 10.0 mi Calm Calm - N/A   Overcast
9:35 PM 33.4 °F 32.0 °F 94% 29.93 in 10.0 mi Calm Calm - N/A   Overcast
9:55 PM 33.4 °F 32.0 °F 94% 29.93 in 10.0 mi Calm Calm - N/A   Overcast
10:15 PM 32.9 °F 32.0 °F 96% 29.92 in 10.0 mi Calm Calm - N/A   Overcast
10:35 PM 32.9 °F 32.0 °F 96% 29.93 in 10.0 mi Calm Calm - N/A   Overcast
10:55 PM 32.9 °F 32.0 °F 96% 29.93 in 10.0 mi Calm Calm - N/A   Overcast
11:15 PM 32.5 °F 31.6 °F 96% 29.92 in 10.0 mi Calm Calm - N/A   Overcast
11:35 PM 32.2 °F 31.5 °F 97% 29.91 in 10.0 mi Calm Calm - N/A   Overcast
11:55 PM 32.0 °F 31.3 °F 97% 29.91 in 10.0 mi Calm Calm - N/A   Overcast